Ban Bua Khao, Thailand

10:13 AM +07 on May 25, 2017 (GMT +0700)
Sanam Chai, Satuk, Buriram, Thailand 31150 | | Change Station

Elev 551 ft 15.24 °N, 103.33 °E | Updated 41 seconds ago

Overcast
Overcast
85.6 °F
Feels Like 85 °F
N
0.9
Wind Variable Wind from NW
Gusts 2.5 mph

Today
High -- | Low -- °F
--% Chance of Precip.
Yesterday
High -- | Low -- °F
Precip. -- in
Pressure 29.80 in
Visibility 4.3 miles
Clouds Scattered Clouds 2000 ft
Heat Index 85 °F
Dew Point 60 °F
Humidity 42%
Rainfall 0.00 in
Snow Depth Not available.
5:35 AM 6:31 PM
Waning Crescent, 1% visible
METAR VTUO 250200Z 13004KT 090V150 7000 SCT020 27/26 Q1009 A2981 INFO C RWY 04
Pressure 29.80 in
Visibility 4.3 miles
Clouds Scattered Clouds 2000 ft
Heat Index 85 °F
Dew Point 60 °F
Humidity 42%
Rainfall 0.00 in
Snow Depth Not available.
5:35 AM 6:31 PM
Waning Crescent, 1% visible
METAR VTUO 250200Z 13004KT 090V150 7000 SCT020 27/26 Q1009 A2981 INFO C RWY 04

Get Severe Weather Alerts

Thanks for signing up!

Be on the lookout for a verification email in your inbox.

You'll start receiving the daily forecast at 6 AM.

×

10-Day Weather Forecast

No radar image for this location.
×

Almanac

Astronomy

May. 25, 2017 Rise Set
Actual Time
Civil Twilight
Nautical Twilight
Astronomical Twilight
Moon
Length of Visible Light
Length of Day
Tomorrow will be .
, % of the Moon is Illuminated

Today's Extremes

Country Highs Country Lows

Community

WunderPhotos

Category 6

Welcome to Category 6. This is the collective home for Weather Underground's featured writeups by Dr. Jeff Masters (right), Bob Henson (left), Chris Burt, and other regular contributors.

Nearby

Air Quality

  Air Quality AQ Index Pollutant
Not available.

Snow Depth

Station Depth Elevation

Earthquake Activity

City Distance Mag. Time & Date
Minimum magnitude displayed is 2.5.

Coastal Water Temperatures

Place Temperature

Stations

Nearby Weather Stations

Station Location Temp. Windchill Dew Point Humidity Wind Precip. Elev Updated Type